createdAt,value
2023-02-15T00:00:00.894Z,24.83
2023-02-15T00:02:27.784Z,25.58
2023-02-15T00:04:56.652Z,23.25
2023-02-15T00:07:23.427Z,24.52
2023-02-15T00:09:50.545Z,22.95
2023-02-15T00:12:17.810Z,24.90
2023-02-15T00:14:44.897Z,25.23
2023-02-15T00:17:11.705Z,22.75
2023-02-15T00:19:38.579Z,25.52
2023-02-15T00:22:05.554Z,24.08
2023-02-15T00:24:32.398Z,25.42
2023-02-15T00:26:59.356Z,31.40
2023-02-15T00:29:26.408Z,40.65
2023-02-15T00:31:53.430Z,38.88
2023-02-15T00:34:23.832Z,34.17
2023-02-15T00:36:51.041Z,28.85
2023-02-15T00:39:18.852Z,26.90
2023-02-15T00:41:47.124Z,26.90
2023-02-15T00:44:14.527Z,30.20
2023-02-15T00:46:41.361Z,31.45
2023-02-15T00:49:08.269Z,32.35
2023-02-15T00:51:35.254Z,30.83
2023-02-15T00:54:02.297Z,27.60
2023-02-15T00:56:32.128Z,28.30
2023-02-15T00:58:59.101Z,27.13
2023-02-15T01:01:26.821Z,28.27
2023-02-15T01:03:53.894Z,29.70
2023-02-15T01:06:20.801Z,27.17
2023-02-15T01:08:48.238Z,41.97
2023-02-15T01:11:23.106Z,55.40
2023-02-15T01:13:56.221Z,62.72
2023-02-15T01:16:24.219Z,73.82
2023-02-15T01:18:51.618Z,74.40
2023-02-15T01:21:21.766Z,57.00
2023-02-15T01:23:48.748Z,46.00
2023-02-15T01:26:16.413Z,38.90
2023-02-15T01:28:43.179Z,36.72
2023-02-15T01:31:20.827Z,30.88
2023-02-15T01:33:48.512Z,27.77
2023-02-15T01:36:15.921Z,23.10
2023-02-15T01:38:42.943Z,24.95
2023-02-15T01:41:24.351Z,24.75
2023-02-15T01:43:54.593Z,22.40
2023-02-15T01:46:27.279Z,22.58
2023-02-15T01:49:01.307Z,22.35
2023-02-15T01:51:31.732Z,21.65
2023-02-15T01:54:25.477Z,22.10
2023-02-15T01:56:53.775Z,22.02
2023-02-15T01:59:23.163Z,21.80
2023-02-15T02:01:53.253Z,21.45
2023-02-15T02:04:47.298Z,22.98
2023-02-15T02:07:17.182Z,21.88
2023-02-15T02:09:45.469Z,21.10
2023-02-15T02:12:13.187Z,21.83
2023-02-15T02:14:41.327Z,22.02
2023-02-15T02:17:08.103Z,21.65
2023-02-15T02:19:59.597Z,23.15
2023-02-15T02:22:54.268Z,20.83
2023-02-15T02:25:33.100Z,23.00
2023-02-15T02:28:18.460Z,24.00
2023-02-15T02:31:06.986Z,22.77
2023-02-15T02:33:50.248Z,21.58
2023-02-15T02:36:56.473Z,22.42
2023-02-15T02:39:28.434Z,21.98
2023-02-15T02:42:12.905Z,23.98
2023-02-15T02:45:05.931Z,24.77
2023-02-15T02:47:53.839Z,23.85
2023-02-15T02:50:27.400Z,22.27
2023-02-15T02:52:56.357Z,24.73
2023-02-15T02:55:25.993Z,26.33
2023-02-15T02:58:00.847Z,24.45
2023-02-15T03:03:05.857Z,24.02
2023-02-15T03:05:35.315Z,26.30
2023-02-15T03:08:06.895Z,25.58
2023-02-15T03:10:35.911Z,26.52
2023-02-15T03:13:03.262Z,25.90
2023-02-15T03:15:57.219Z,27.77
2023-02-15T03:18:29.043Z,25.45
2023-02-15T03:20:57.070Z,26.55
2023-02-15T03:23:26.700Z,25.02
2023-02-15T03:26:04.092Z,25.75
2023-02-15T03:28:52.686Z,25.15
2023-02-15T03:31:22.336Z,27.23
2023-02-15T03:34:02.363Z,24.98
2023-02-15T03:36:42.878Z,24.23
2023-02-15T03:39:30.401Z,23.60
2023-02-15T03:42:09.813Z,26.08
2023-02-15T03:44:57.954Z,25.13
2023-02-15T03:47:35.575Z,25.10
2023-02-15T03:50:28.670Z,25.60
2023-02-15T03:52:57.391Z,23.05
2023-02-15T03:55:24.566Z,24.38
2023-02-15T03:58:10.393Z,24.48
2023-02-15T04:01:00.589Z,24.08
2023-02-15T04:03:39.513Z,23.98
2023-02-15T04:06:06.538Z,25.63
2023-02-15T04:08:52.094Z,26.95
2023-02-15T04:11:18.910Z,24.80
2023-02-15T04:13:45.729Z,25.27
2023-02-15T04:16:12.510Z,25.83
2023-02-15T04:19:01.287Z,24.80
2023-02-15T04:21:48.918Z,27.10
2023-02-15T04:24:35.043Z,24.33
2023-02-15T04:27:02.275Z,26.25
2023-02-15T04:29:29.506Z,27.20
2023-02-15T04:31:58.288Z,27.30
2023-02-15T04:34:25.203Z,26.05
2023-02-15T04:36:52.189Z,26.35
2023-02-15T04:39:19.854Z,26.10
2023-02-15T04:41:46.918Z,23.60
2023-02-15T04:44:13.801Z,25.90
2023-02-15T04:46:40.624Z,27.13
2023-02-15T04:49:07.523Z,26.73
2023-02-15T04:51:34.329Z,26.13
2023-02-15T04:54:01.273Z,25.98
2023-02-15T04:56:28.064Z,26.33
2023-02-15T04:58:54.800Z,27.00
2023-02-15T05:01:21.779Z,26.15
2023-02-15T05:03:48.628Z,25.17
2023-02-15T05:06:15.418Z,27.70
2023-02-15T05:08:42.240Z,26.35
2023-02-15T05:11:09.021Z,24.48
2023-02-15T05:13:35.763Z,22.95
2023-02-15T05:16:03.018Z,26.73
2023-02-15T05:18:29.922Z,24.05
2023-02-15T05:20:57.004Z,25.45
2023-02-15T05:23:23.860Z,24.23
2023-02-15T05:26:10.769Z,25.98
2023-02-15T05:28:39.043Z,24.65
2023-02-15T05:31:15.415Z,25.63
2023-02-15T05:33:42.718Z,26.58
2023-02-15T05:36:10.411Z,25.88
2023-02-15T05:38:40.306Z,26.08
2023-02-15T05:41:08.319Z,26.20
2023-02-15T05:43:39.405Z,25.42
2023-02-15T05:46:06.617Z,24.33
2023-02-15T05:48:34.034Z,25.67
2023-02-15T05:51:05.808Z,26.42
2023-02-15T05:53:34.489Z,27.33
2023-02-15T05:56:03.361Z,25.17
2023-02-15T05:58:34.798Z,26.58
2023-02-15T06:01:15.756Z,27.30
2023-02-15T06:03:43.267Z,23.55
2023-02-15T06:06:10.594Z,27.40
2023-02-15T06:08:38.723Z,28.15
2023-02-15T06:11:06.280Z,26.70
2023-02-15T06:13:37.893Z,24.02
2023-02-15T06:16:05.977Z,25.98
2023-02-15T06:18:33.082Z,23.83
2023-02-15T06:20:59.882Z,25.73
2023-02-15T06:23:26.781Z,27.02
2023-02-15T06:25:53.583Z,27.27
2023-02-15T06:28:20.407Z,26.67
2023-02-15T06:30:47.802Z,27.17
2023-02-15T06:33:14.634Z,27.33
2023-02-15T06:35:41.614Z,27.25
2023-02-15T06:38:08.375Z,25.98
2023-02-15T06:40:35.164Z,25.50
2023-02-15T06:43:01.954Z,27.05
2023-02-15T06:45:28.885Z,26.77
2023-02-15T06:47:55.682Z,25.02
2023-02-15T06:50:22.470Z,26.70
2023-02-15T06:52:49.248Z,27.35
2023-02-15T06:55:16.168Z,26.65
2023-02-15T06:57:42.926Z,26.27
2023-02-15T07:00:10.549Z,29.48
2023-02-15T07:02:37.371Z,29.00
2023-02-15T07:05:06.098Z,27.55
2023-02-15T07:07:33.181Z,29.27
2023-02-15T07:09:59.994Z,30.73
2023-02-15T07:12:48.197Z,29.75
2023-02-15T07:15:17.733Z,31.67
2023-02-15T07:17:45.246Z,30.65
2023-02-15T07:20:18.210Z,31.10
2023-02-15T07:22:45.369Z,32.72
2023-02-15T07:25:13.456Z,30.40
2023-02-15T07:27:41.018Z,29.63
2023-02-15T07:30:10.655Z,32.00
2023-02-15T07:32:37.852Z,32.50
2023-02-15T07:35:04.830Z,30.33
2023-02-15T07:37:31.681Z,32.22
2023-02-15T07:39:58.404Z,32.17
2023-02-15T07:42:25.273Z,32.13
2023-02-15T07:44:53.576Z,33.75
2023-02-15T07:47:20.411Z,33.85
2023-02-15T07:49:47.217Z,31.70
2023-02-15T07:52:13.928Z,32.70
2023-02-15T07:54:40.751Z,31.00
2023-02-15T07:57:07.470Z,34.83
2023-02-15T07:59:34.216Z,32.75
2023-02-15T08:02:00.996Z,30.95
2023-02-15T08:04:27.739Z,31.83
2023-02-15T08:06:55.492Z,31.90
2023-02-15T08:09:22.983Z,35.20
2023-02-15T08:11:50.002Z,33.47
2023-02-15T08:14:17.970Z,33.83
2023-02-15T08:16:53.377Z,35.60
2023-02-15T08:19:25.688Z,34.30
2023-02-15T08:22:00.041Z,34.67
2023-02-15T08:24:30.333Z,34.13
2023-02-15T08:26:57.812Z,35.85
2023-02-15T08:29:27.642Z,37.58
2023-02-15T08:31:59.747Z,34.55
2023-02-15T08:34:26.760Z,36.58
2023-02-15T08:36:53.831Z,34.67
2023-02-15T08:39:21.323Z,34.88
2023-02-15T08:41:49.245Z,35.53
2023-02-15T08:44:18.262Z,38.30
2023-02-15T08:46:46.582Z,34.60
2023-02-15T08:49:19.676Z,34.83
2023-02-15T08:51:47.138Z,35.30
2023-02-15T08:54:16.876Z,38.20
2023-02-15T08:56:45.039Z,37.50
2023-02-15T08:59:23.238Z,35.83
2023-02-15T09:01:52.605Z,35.40
2023-02-15T09:04:20.773Z,35.45
2023-02-15T09:06:49.577Z,34.13
2023-02-15T09:09:17.687Z,36.80
2023-02-15T09:11:47.564Z,33.03
2023-02-15T09:14:21.102Z,35.03
2023-02-15T09:16:50.327Z,34.30
2023-02-15T09:19:19.221Z,35.85
2023-02-15T09:21:46.661Z,34.22
2023-02-15T09:24:15.743Z,36.45
2023-02-15T09:26:45.491Z,35.60
2023-02-15T09:29:13.126Z,34.35
2023-02-15T09:31:49.752Z,35.55
2023-02-15T09:34:19.265Z,34.28
2023-02-15T09:36:47.872Z,33.70
2023-02-15T09:39:17.557Z,34.88
2023-02-15T09:41:54.632Z,36.45
2023-02-15T09:44:58.786Z,33.05
2023-02-15T09:47:59.160Z,35.13
2023-02-15T09:50:43.939Z,37.03
2023-02-15T09:53:28.856Z,35.17
2023-02-15T09:56:04.753Z,34.25
2023-02-15T09:58:40.457Z,36.88
2023-02-15T10:01:22.814Z,35.15
2023-02-15T10:04:05.034Z,35.88
2023-02-15T10:06:49.661Z,34.25
2023-02-15T10:09:35.635Z,34.50
2023-02-15T10:12:39.798Z,37.63
2023-02-15T10:15:12.758Z,36.35
2023-02-15T10:18:04.334Z,37.63
2023-02-15T10:21:03.911Z,36.63
2023-02-15T10:23:53.229Z,34.92
2023-02-15T10:26:28.346Z,35.22
2023-02-15T10:29:18.335Z,34.60
2023-02-15T10:31:53.175Z,35.25
2023-02-15T10:34:38.300Z,37.70
2023-02-15T10:37:39.422Z,36.63
2023-02-15T10:40:26.030Z,37.22
2023-02-15T10:43:10.118Z,38.72
2023-02-15T10:45:44.498Z,36.20
2023-02-15T10:48:35.672Z,37.37
2023-02-15T10:51:06.150Z,34.08
2023-02-15T10:53:32.955Z,36.78
2023-02-15T10:56:20.698Z,34.17
2023-02-15T10:59:02.833Z,32.85
2023-02-15T11:01:54.772Z,34.75
2023-02-15T11:04:46.557Z,33.38
2023-02-15T11:07:40.464Z,34.47
2023-02-15T11:10:25.873Z,34.28
2023-02-15T11:12:53.982Z,31.65
2023-02-15T11:15:45.578Z,33.05
2023-02-15T11:18:31.667Z,34.72
2023-02-15T11:21:04.507Z,33.40
2023-02-15T11:23:34.981Z,33.75
2023-02-15T11:26:13.037Z,36.45
2023-02-15T11:28:48.213Z,34.10
2023-02-15T11:31:21.524Z,34.47
2023-02-15T11:34:01.335Z,36.03
2023-02-15T11:36:39.458Z,36.25
2023-02-15T11:39:16.672Z,36.25
2023-02-15T11:41:52.945Z,35.25
2023-02-15T11:44:28.669Z,35.97
2023-02-15T11:46:55.467Z,38.80
2023-02-15T11:49:38.259Z,35.22
2023-02-15T11:52:15.037Z,35.95
2023-02-15T11:54:45.241Z,36.45
2023-02-15T11:57:39.898Z,35.10
2023-02-15T12:00:25.388Z,34.30
2023-02-15T12:02:55.839Z,35.78
2023-02-15T12:05:25.844Z,35.80
2023-02-15T12:08:01.756Z,33.90
2023-02-15T12:10:37.507Z,34.13
2023-02-15T12:13:14.778Z,34.70
2023-02-15T12:15:50.927Z,34.85
2023-02-15T12:18:40.918Z,33.55
2023-02-15T12:21:14.546Z,35.28
2023-02-15T12:23:57.133Z,34.85
2023-02-15T12:26:36.470Z,34.28
2023-02-15T12:29:14.108Z,35.72
2023-02-15T12:31:44.727Z,34.83
2023-02-15T12:34:29.630Z,32.53
2023-02-15T12:37:03.147Z,30.83
2023-02-15T12:39:32.822Z,27.90
2023-02-15T12:42:06.650Z,31.95
2023-02-15T12:44:36.771Z,31.77
2023-02-15T12:47:17.100Z,30.38
2023-02-15T12:49:48.206Z,33.63
2023-02-15T12:52:21.274Z,31.33
2023-02-15T12:54:48.312Z,32.85
2023-02-15T12:57:29.924Z,29.67
2023-02-15T13:00:00.140Z,30.23
2023-02-15T13:02:41.976Z,29.15
2023-02-15T13:05:28.373Z,28.38
2023-02-15T13:07:59.548Z,28.15
2023-02-15T13:10:36.198Z,27.73
2023-02-15T13:13:09.934Z,27.10
2023-02-15T13:15:47.607Z,26.92
2023-02-15T13:18:30.309Z,27.73
2023-02-15T13:20:57.745Z,29.50
2023-02-15T13:23:29.940Z,27.08
2023-02-15T13:26:03.637Z,28.13
2023-02-15T13:28:41.993Z,27.20
2023-02-15T13:31:19.888Z,27.60
2023-02-15T13:33:52.003Z,26.67
2023-02-15T13:36:24.491Z,28.15
2023-02-15T13:39:28.525Z,28.60
2023-02-15T13:42:10.243Z,28.58
2023-02-15T13:45:06.914Z,28.88
2023-02-15T13:47:39.369Z,29.77
2023-02-15T13:50:21.024Z,32.17
2023-02-15T13:53:10.135Z,30.67
2023-02-15T13:55:44.955Z,33.03
2023-02-15T13:58:31.791Z,30.65
2023-02-15T14:01:16.639Z,32.92
2023-02-15T14:04:22.354Z,32.25
2023-02-15T14:07:18.790Z,28.58
2023-02-15T14:09:54.617Z,29.92
2023-02-15T14:12:30.375Z,28.88
2023-02-15T14:15:07.756Z,29.35
2023-02-15T14:17:49.665Z,28.80
2023-02-15T14:20:42.360Z,31.10
2023-02-15T14:23:37.215Z,29.67
2023-02-15T14:26:22.008Z,28.65
2023-02-15T14:29:45.401Z,27.83
2023-02-15T14:32:40.456Z,27.85
2023-02-15T14:35:16.321Z,30.25
2023-02-15T14:37:58.418Z,30.15
2023-02-15T14:41:02.098Z,29.27
2023-02-15T14:43:49.949Z,29.60
2023-02-15T14:46:43.980Z,27.73
2023-02-15T14:49:17.648Z,28.85
2023-02-15T14:51:44.684Z,27.00
2023-02-15T14:54:35.350Z,27.48
2023-02-15T14:57:02.152Z,28.45
2023-02-15T15:00:00.671Z,29.35
2023-02-15T15:02:40.906Z,28.25
2023-02-15T15:05:18.852Z,28.10
2023-02-15T15:07:47.930Z,27.40
2023-02-15T15:10:17.760Z,30.60
2023-02-15T15:12:50.635Z,25.65
2023-02-15T15:15:30.721Z,30.08
2023-02-15T15:18:02.516Z,29.10
2023-02-15T15:20:49.585Z,29.60
2023-02-15T15:23:18.894Z,29.17
2023-02-15T15:25:52.970Z,30.20
2023-02-15T15:28:35.398Z,29.75
2023-02-15T15:31:23.996Z,28.90
2023-02-15T15:34:12.685Z,26.92
2023-02-15T15:36:45.275Z,28.33
2023-02-15T15:39:30.815Z,28.85
2023-02-15T15:44:49.434Z,28.10
2023-02-15T15:47:40.425Z,26.92
2023-02-15T15:50:16.498Z,29.38
2023-02-15T15:52:54.256Z,27.92
2023-02-15T15:55:24.210Z,28.88
2023-02-15T15:57:54.331Z,28.98
2023-02-15T16:00:31.990Z,28.33
2023-02-15T16:02:58.965Z,29.17
2023-02-15T16:05:26.100Z,29.90
2023-02-15T16:07:52.980Z,30.45
2023-02-15T16:10:29.146Z,31.85
2023-02-15T16:12:56.520Z,30.77
2023-02-15T16:15:36.079Z,30.25
2023-02-15T16:18:03.364Z,32.58
2023-02-15T16:20:36.985Z,30.70
2023-02-15T16:23:28.892Z,28.65
2023-02-15T16:26:37.045Z,31.83
2023-02-15T16:29:18.758Z,29.70
2023-02-15T16:32:01.342Z,30.85
2023-02-15T16:34:29.112Z,30.38
2023-02-15T16:37:15.271Z,31.42
2023-02-15T16:39:43.340Z,27.60
2023-02-15T16:42:14.340Z,27.98
2023-02-15T16:44:41.940Z,29.85
2023-02-15T16:47:27.388Z,30.38
2023-02-15T16:49:57.267Z,29.88
2023-02-15T16:52:26.610Z,29.10
2023-02-15T16:54:57.503Z,30.58
2023-02-15T16:57:36.768Z,29.95
2023-02-15T17:00:18.455Z,28.25
2023-02-15T17:02:56.816Z,28.95
2023-02-15T17:05:24.219Z,31.38
2023-02-15T17:08:04.481Z,28.42
2023-02-15T17:10:42.969Z,32.67
2023-02-15T17:13:14.705Z,31.25
2023-02-15T17:16:03.575Z,29.80
2023-02-15T17:18:31.822Z,31.48
2023-02-15T17:21:02.378Z,29.67
2023-02-15T17:23:32.050Z,29.35
2023-02-15T17:26:01.463Z,29.80
2023-02-15T17:28:33.401Z,30.73
2023-02-15T17:31:00.649Z,28.50
2023-02-15T17:33:39.960Z,27.55
2023-02-15T17:36:20.303Z,30.33
2023-02-15T17:39:23.382Z,30.60
2023-02-15T17:41:53.826Z,31.52
2023-02-15T17:44:20.730Z,31.73
2023-02-15T17:46:47.502Z,31.67
2023-02-15T17:52:57.800Z,29.67
2023-02-15T17:55:41.333Z,31.48
2023-02-15T17:58:19.524Z,29.27
2023-02-15T18:03:53.739Z,29.02
2023-02-15T18:06:39.171Z,31.33
2023-02-15T18:09:49.591Z,30.25
2023-02-15T18:12:30.901Z,29.42
2023-02-15T18:14:58.709Z,29.50
2023-02-15T18:17:42.436Z,28.73
2023-02-15T18:20:24.295Z,30.77
2023-02-15T18:22:52.237Z,31.40
2023-02-15T18:25:21.617Z,32.20
2023-02-15T18:27:48.405Z,29.48
2023-02-15T18:30:18.274Z,29.63
2023-02-15T18:32:46.424Z,29.35
2023-02-15T18:35:18.884Z,28.38
2023-02-15T18:37:46.402Z,28.20
2023-02-15T18:40:17.768Z,27.88
2023-02-15T18:42:55.092Z,26.25
2023-02-15T18:45:24.984Z,27.33
2023-02-15T18:47:51.932Z,25.88
2023-02-15T18:50:21.001Z,25.90
2023-02-15T18:52:51.396Z,25.20
2023-02-15T18:55:21.863Z,26.42
2023-02-15T18:57:50.563Z,28.02
2023-02-15T19:00:21.047Z,28.77
2023-02-15T19:02:48.537Z,26.73
2023-02-15T19:05:17.787Z,25.27
2023-02-15T19:07:51.280Z,27.30
2023-02-15T19:10:24.403Z,27.27
2023-02-15T19:12:52.932Z,25.67
2023-02-15T19:15:25.240Z,27.50
2023-02-15T19:17:53.060Z,27.50
2023-02-15T19:20:21.140Z,25.52
2023-02-15T19:22:50.208Z,26.10
2023-02-15T19:25:28.605Z,25.25
2023-02-15T19:27:56.383Z,24.50
2023-02-15T19:30:29.805Z,27.02
2023-02-15T19:32:58.048Z,26.02
2023-02-15T19:35:37.401Z,28.13
2023-02-15T19:38:08.519Z,26.25
2023-02-15T19:40:36.545Z,26.23
2023-02-15T19:43:03.799Z,27.70
2023-02-15T19:45:32.803Z,27.90
2023-02-15T19:48:02.769Z,28.10
2023-02-15T19:50:31.644Z,26.98
2023-02-15T19:52:58.706Z,27.20
2023-02-15T19:55:28.464Z,27.02
2023-02-15T19:57:57.121Z,27.08
2023-02-15T20:01:17.087Z,26.77
2023-02-15T20:03:44.314Z,27.23
2023-02-15T20:06:15.107Z,29.70
2023-02-15T20:08:43.188Z,27.15
2023-02-15T20:11:14.107Z,27.63
2023-02-15T20:13:40.964Z,26.42
2023-02-15T20:16:09.748Z,28.80
2023-02-15T20:18:36.787Z,28.05
2023-02-15T20:21:05.070Z,26.65
2023-02-15T20:23:36.023Z,27.15
2023-02-15T20:26:18.229Z,27.38
2023-02-15T20:28:46.408Z,28.60
2023-02-15T20:31:16.807Z,26.80
2023-02-15T20:33:43.702Z,26.58
2023-02-15T20:36:15.080Z,27.27
2023-02-15T20:38:42.363Z,25.23
2023-02-15T20:41:33.684Z,26.15
2023-02-15T20:44:00.687Z,25.63
2023-02-15T20:46:27.617Z,24.75
2023-02-15T20:48:54.512Z,27.75
2023-02-15T20:51:22.224Z,25.80
2023-02-15T20:53:49.240Z,24.75
2023-02-15T20:56:24.509Z,28.23
2023-02-15T20:58:52.443Z,28.30
2023-02-15T21:01:31.663Z,26.90
2023-02-15T21:03:58.527Z,26.40
2023-02-15T21:06:25.528Z,27.65
2023-02-15T21:08:52.842Z,26.88
2023-02-15T21:11:22.748Z,26.60
2023-02-15T21:13:51.290Z,24.83
2023-02-15T21:16:22.347Z,27.20
2023-02-15T21:18:49.626Z,24.00
2023-02-15T21:21:36.971Z,25.73
2023-02-15T21:24:05.952Z,26.33
2023-02-15T21:26:39.226Z,25.20
2023-02-15T21:29:09.868Z,24.30
2023-02-15T21:31:38.658Z,23.33
2023-02-15T21:34:06.835Z,23.85
2023-02-15T21:36:37.293Z,26.10
2023-02-15T21:39:04.506Z,27.08
2023-02-15T21:41:50.630Z,24.73
2023-02-15T21:44:39.904Z,25.77
2023-02-15T21:47:46.240Z,26.23
2023-02-15T21:50:34.613Z,25.05
2023-02-15T21:53:03.112Z,25.90
2023-02-15T21:55:32.189Z,24.38
2023-02-15T21:58:00.058Z,26.83
2023-02-15T22:00:29.304Z,28.40
2023-02-15T22:02:58.660Z,25.90
2023-02-15T22:05:28.522Z,25.50
2023-02-15T22:07:57.309Z,26.90
2023-02-15T22:10:30.495Z,24.48
2023-02-15T22:12:59.493Z,24.88
2023-02-15T22:15:29.205Z,25.35
2023-02-15T22:17:56.156Z,26.17
2023-02-15T22:20:24.791Z,24.38
2023-02-15T22:22:53.635Z,26.05
2023-02-15T22:25:23.863Z,25.92
2023-02-15T22:27:52.996Z,26.73
2023-02-15T22:30:33.324Z,27.17
2023-02-15T22:33:00.885Z,25.88
2023-02-15T22:35:33.934Z,27.15
2023-02-15T22:38:01.351Z,25.52
2023-02-15T22:40:37.206Z,25.42
2023-02-15T22:43:05.895Z,25.70
2023-02-15T22:45:35.628Z,27.13
2023-02-15T22:48:02.890Z,27.67
2023-02-15T22:50:32.251Z,25.70
2023-02-15T22:53:03.461Z,26.73
2023-02-15T22:55:36.071Z,25.65
2023-02-15T22:58:03.599Z,25.55
2023-02-15T23:00:35.388Z,25.90
2023-02-15T23:03:02.288Z,25.15
2023-02-15T23:05:31.537Z,23.90
2023-02-15T23:07:58.387Z,25.40
2023-02-15T23:10:26.944Z,24.75
2023-02-15T23:13:14.331Z,27.38
2023-02-15T23:15:42.479Z,25.00
2023-02-15T23:18:21.111Z,25.77
2023-02-15T23:20:55.798Z,23.45
2023-02-15T23:23:38.524Z,26.50
2023-02-15T23:26:15.282Z,26.92
2023-02-15T23:28:42.393Z,25.45
2023-02-15T23:31:19.984Z,25.25
2023-02-15T23:33:47.861Z,25.83
2023-02-15T23:36:38.921Z,28.90
2023-02-15T23:39:35.652Z,24.95
2023-02-15T23:42:10.229Z,26.88
2023-02-15T23:44:37.485Z,26.70
2023-02-15T23:47:05.103Z,28.38
2023-02-15T23:49:31.946Z,27.55
2023-02-15T23:51:59.022Z,27.13
2023-02-15T23:54:26.747Z,26.92
2023-02-15T23:56:58.252Z,27.77
2023-02-15T23:59:27.957Z,28.30
